createdAt,value
2018-09-15T03:00:59.920Z,11.10
2018-09-15T03:02:00.844Z,10.96
2018-09-15T03:05:00.678Z,10.90
2018-09-15T03:05:55.904Z,10.89
2018-09-15T03:09:29.490Z,10.86
2018-09-15T03:10:34.843Z,10.82
2018-09-15T03:11:30.558Z,10.75
2018-09-15T03:19:38.159Z,10.86
2018-09-15T03:20:36.086Z,10.76
2018-09-15T03:21:35.518Z,10.79
2018-09-15T03:23:53.253Z,10.79
2018-09-15T03:24:10.638Z,10.72
2018-09-15T03:26:08.461Z,10.75
2018-09-15T03:27:07.047Z,10.75
2018-09-15T03:28:07.472Z,10.74
2018-09-15T03:29:07.418Z,10.68
2018-09-15T03:32:09.041Z,10.64
2018-09-15T03:33:10.166Z,10.67
2018-09-15T03:39:08.679Z,10.51
2018-09-15T03:39:32.521Z,10.38
2018-09-15T03:40:10.501Z,10.46
2018-09-15T03:41:11.189Z,10.38
2018-09-15T03:42:17.162Z,10.42
2018-09-15T03:48:02.588Z,10.37
2018-09-15T03:49:05.246Z,10.34
2018-09-15T03:50:04.124Z,10.35
2018-09-15T03:51:04.712Z,10.28
2018-09-15T03:52:04.227Z,10.26
2018-09-15T03:53:09.158Z,10.26
2018-09-15T03:55:12.411Z,10.22
2018-09-15T03:58:13.118Z,10.30
2018-09-15T03:59:06.970Z,10.22
2018-09-15T04:02:07.490Z,10.23
2018-09-15T04:03:09.201Z,10.16
2018-09-15T04:04:14.176Z,10.23
2018-09-15T04:05:09.560Z,10.19
2018-09-15T04:07:08.095Z,10.19
2018-09-15T04:09:41.407Z,10.22
2018-09-15T04:10:42.254Z,10.13
2018-09-15T04:12:59.920Z,10.17
2018-09-15T04:13:43.340Z,10.17
2018-09-15T04:14:41.843Z,10.22
2018-09-15T04:15:42.190Z,10.15
2018-09-15T04:16:41.385Z,10.22
2018-09-15T04:17:40.914Z,10.19
2018-09-15T04:18:38.463Z,10.13
2018-09-15T04:19:38.617Z,10.15
2018-09-15T04:20:38.838Z,10.16
2018-09-15T04:21:39.030Z,9.99
2018-09-15T04:22:39.573Z,10.09
2018-09-15T04:23:39.734Z,10.01
2018-09-15T04:24:39.790Z,9.95
2018-09-15T04:25:39.612Z,9.94
2018-09-15T04:26:39.917Z,9.92
2018-09-15T04:27:40.318Z,9.92
2018-09-15T04:28:40.233Z,9.94
2018-09-15T04:29:40.372Z,9.82
2018-09-15T04:30:40.576Z,9.74
2018-09-15T04:31:40.651Z,9.80
2018-09-15T04:32:40.734Z,9.86
2018-09-15T04:33:40.802Z,9.79
2018-09-15T04:34:40.988Z,9.79
2018-09-15T04:35:41.130Z,9.74
2018-09-15T04:36:41.242Z,9.73
2018-09-15T04:37:41.624Z,9.72
2018-09-15T04:38:41.433Z,9.74
2018-09-15T04:39:41.664Z,9.74
2018-09-15T04:40:42.044Z,9.68
2018-09-15T04:41:42.068Z,9.66
2018-09-15T04:42:42.303Z,9.74
2018-09-15T04:43:42.510Z,9.72
2018-09-15T04:44:42.624Z,9.58
2018-09-15T04:45:42.844Z,9.59
2018-09-15T04:46:43.497Z,9.56
2018-09-15T04:47:43.080Z,9.59
2018-09-15T04:48:43.400Z,9.48
2018-09-15T04:49:43.615Z,9.56
2018-09-15T04:50:43.772Z,9.46
2018-09-15T04:51:44.426Z,9.48
2018-09-15T04:52:44.059Z,9.51
2018-09-15T04:53:44.258Z,9.48
2018-09-15T04:54:44.453Z,9.47
2018-09-15T04:55:44.703Z,9.37
2018-09-15T04:56:44.741Z,9.41
2018-09-15T04:57:44.948Z,9.32
2018-09-15T04:58:45.367Z,9.34
2018-09-15T04:59:45.486Z,9.26
2018-09-15T05:00:45.819Z,9.22
2018-09-15T05:01:46.552Z,9.19
2018-09-15T05:02:45.907Z,9.10
2018-09-15T05:03:46.188Z,9.13
2018-09-15T05:04:46.562Z,9.08
2018-09-15T05:05:46.540Z,9.02
2018-09-15T05:06:46.782Z,8.94
2018-09-15T05:07:46.622Z,9.00
2018-09-15T05:08:47.359Z,8.92
2018-09-15T05:09:47.239Z,9.02
2018-09-15T05:10:48.516Z,9.14
2018-09-15T05:11:47.453Z,9.10
2018-09-15T05:12:47.780Z,9.06
2018-09-15T05:13:48.844Z,9.14
2018-09-15T05:14:48.093Z,9.14
2018-09-15T05:15:48.085Z,9.10
2018-09-15T05:16:48.453Z,9.18
2018-09-15T05:17:48.635Z,9.21
2018-09-15T05:18:48.929Z,9.25
2018-09-15T05:19:48.877Z,9.25
2018-09-15T05:20:48.803Z,9.29
2018-09-15T05:21:48.917Z,9.32
2018-09-15T05:22:49.205Z,9.44
2018-09-15T05:23:49.759Z,9.44
2018-09-15T05:24:49.738Z,9.48
2018-09-15T05:25:50.088Z,9.47
2018-09-15T05:28:45.961Z,9.51
2018-09-15T05:30:46.980Z,9.41
2018-09-15T05:31:56.045Z,9.32
2018-09-15T05:32:53.418Z,9.34
2018-09-15T05:35:50.410Z,9.18
2018-09-15T05:36:49.645Z,9.16
2018-09-15T05:38:25.477Z,9.16
2018-09-15T05:38:50.068Z,9.22
2018-09-15T05:39:49.856Z,9.16
2018-09-15T05:40:58.580Z,9.23
2018-09-15T05:41:52.107Z,9.10
2018-09-15T05:42:53.976Z,9.13
2018-09-15T05:43:50.303Z,9.11
2018-09-15T05:45:01.485Z,9.06
2018-09-15T05:45:50.084Z,9.08
2018-09-15T05:46:54.243Z,9.11
2018-09-15T05:47:53.240Z,9.16
2018-09-15T05:48:51.218Z,9.10
2018-09-15T05:50:01.524Z,9.14
2018-09-15T05:50:51.674Z,9.25
2018-09-15T05:52:52.259Z,9.25
2018-09-15T05:53:57.146Z,9.29
2018-09-15T05:55:13.235Z,9.37
2018-09-15T05:55:52.217Z,9.41
2018-09-15T05:58:00.820Z,9.51
2018-09-15T05:58:53.913Z,9.54
2018-09-15T06:00:56.112Z,9.69
2018-09-15T06:02:00.919Z,9.66
2018-09-15T06:03:02.044Z,9.64
2018-09-15T06:03:53.485Z,9.72
2018-09-15T06:04:56.654Z,9.74
2018-09-15T06:05:55.164Z,9.72
2018-09-15T06:08:37.844Z,9.92
2018-09-15T06:09:38.477Z,10.01
2018-09-15T06:10:51.734Z,10.01
2018-09-15T06:11:38.250Z,10.04
2018-09-15T06:12:38.430Z,10.04
2018-09-15T06:13:39.182Z,10.16
2018-09-15T06:16:50.452Z,10.28
2018-09-15T06:17:48.606Z,10.38
2018-09-15T06:18:57.467Z,10.35
2018-09-15T06:19:56.132Z,10.44
2018-09-15T06:20:50.839Z,10.51
2018-09-15T06:26:59.375Z,10.75
2018-09-15T06:27:58.593Z,10.75
2018-09-15T06:28:58.194Z,10.81
2018-09-15T06:29:58.139Z,10.81
2018-09-15T06:30:59.440Z,11.00
2018-09-15T06:31:58.051Z,10.93
2018-09-15T06:45:53.621Z,11.52
2018-09-15T06:46:36.763Z,11.65
2018-09-15T06:47:33.121Z,11.69
2018-09-15T06:48:31.595Z,11.77
2018-09-15T06:49:30.159Z,11.80
2018-09-15T06:50:29.288Z,11.81
2018-09-15T06:51:33.739Z,11.81
2018-09-15T06:52:50.827Z,12.00
2018-09-15T06:53:29.347Z,12.07
2018-09-15T06:54:29.506Z,12.09
2018-09-15T06:55:33.794Z,12.24
2018-09-15T07:25:08.078Z,19.40
2018-09-15T07:26:42.672Z,19.62
2018-09-15T07:27:42.667Z,19.91
2018-09-15T07:28:44.004Z,20.10
2018-09-15T07:29:42.925Z,20.34
2018-09-15T07:30:47.953Z,20.59
2018-09-15T07:33:27.960Z,21.02
2018-09-15T07:34:30.182Z,21.02
2018-09-15T07:40:12.907Z,22.04
2018-09-15T07:45:34.280Z,22.41
2018-09-15T07:46:36.247Z,22.36
2018-09-15T07:52:51.783Z,22.47
2018-09-15T07:54:16.655Z,22.39
2018-09-15T08:22:58.506Z,24.77
2018-09-15T08:23:33.026Z,24.68
2018-09-15T08:24:42.505Z,24.93
2018-09-15T08:25:59.580Z,25.04
2018-09-15T08:39:42.551Z,25.66
2018-09-15T08:41:45.898Z,25.26
2018-09-15T08:42:43.771Z,25.47
2018-09-15T08:43:43.015Z,25.28
2018-09-15T08:44:43.970Z,25.44
2018-09-15T08:48:17.615Z,25.80
2018-09-15T08:49:18.093Z,25.68
2018-09-15T08:50:18.774Z,25.69
2018-09-15T08:51:18.234Z,25.84
2018-09-15T08:52:19.325Z,25.93
2018-09-15T08:53:20.292Z,26.25
2018-09-15T08:54:21.553Z,26.44
2018-09-15T08:59:19.891Z,27.18
2018-09-15T09:00:18.286Z,27.21
2018-09-15T09:02:18.071Z,27.03
2018-09-15T09:03:15.151Z,27.37
2018-09-15T09:04:15.288Z,26.29
2018-09-15T09:05:15.375Z,25.58
2018-09-15T09:06:15.961Z,24.88
2018-09-15T09:07:15.697Z,24.42
2018-09-15T09:08:15.938Z,23.68
2018-09-15T09:09:16.864Z,23.12
2018-09-15T09:10:16.241Z,22.75
2018-09-15T09:11:17.166Z,22.43
2018-09-15T09:12:17.184Z,23.10
2018-09-15T09:13:18.930Z,23.20
2018-09-15T09:15:54.993Z,22.57
2018-09-15T09:17:52.470Z,23.20
2018-09-15T09:18:50.919Z,22.99
2018-09-15T09:19:51.055Z,22.53
2018-09-15T09:20:51.220Z,22.25
2018-09-15T09:21:51.419Z,22.02
2018-09-15T09:22:51.500Z,21.77
2018-09-15T09:23:51.806Z,21.57
2018-09-15T09:24:51.909Z,21.40
2018-09-15T09:25:52.157Z,21.36
2018-09-15T09:26:52.335Z,21.43
2018-09-15T09:27:52.426Z,21.30
2018-09-15T09:28:52.653Z,21.21
2018-09-15T09:29:52.834Z,21.12
2018-09-15T09:30:52.909Z,21.33
2018-09-15T09:31:53.150Z,21.32
2018-09-15T09:32:53.475Z,22.04
2018-09-15T09:33:53.588Z,23.08
2018-09-15T09:34:54.013Z,23.81
2018-09-15T09:35:54.352Z,23.61
2018-09-15T09:36:56.755Z,23.28
2018-09-15T09:40:18.215Z,25.47
2018-09-15T09:45:25.718Z,26.78
2018-09-15T09:45:48.974Z,27.21
2018-09-15T09:46:55.365Z,27.67
2018-09-15T09:54:00.347Z,30.06
2018-09-15T09:55:03.214Z,29.87
2018-09-15T09:58:05.873Z,30.00
2018-09-15T09:59:06.245Z,30.10
2018-09-15T10:03:09.556Z,30.10
2018-09-15T10:04:12.100Z,30.03
2018-09-15T10:06:18.471Z,29.98
2018-09-15T10:07:55.756Z,30.18
2018-09-15T10:08:07.874Z,30.31
2018-09-15T10:09:09.788Z,30.37
2018-09-15T10:10:05.321Z,30.43
2018-09-15T10:11:05.421Z,30.31
2018-09-15T10:12:05.852Z,30.40
2018-09-15T10:13:05.976Z,30.13
2018-09-15T10:14:06.095Z,29.59
2018-09-15T10:15:06.225Z,28.79
2018-09-15T10:16:06.482Z,28.47
2018-09-15T10:17:06.524Z,28.08
2018-09-15T10:18:09.787Z,27.52
2018-09-15T10:19:06.915Z,27.52
2018-09-15T10:20:07.137Z,27.36
2018-09-15T10:21:07.426Z,28.04
2018-09-15T10:22:07.574Z,28.57
2018-09-15T10:23:07.858Z,28.51
2018-09-15T10:24:08.673Z,29.08
2018-09-15T10:27:37.835Z,29.60
2018-09-15T10:48:40.424Z,31.61
2018-09-15T10:49:12.126Z,31.89
2018-09-15T10:50:08.404Z,32.45
2018-09-15T10:51:08.469Z,32.51
2018-09-15T10:52:08.859Z,32.48
2018-09-15T10:53:08.835Z,32.15
2018-09-15T10:54:09.125Z,32.18
2018-09-15T10:55:09.169Z,31.94
2018-09-15T10:56:09.417Z,31.03
2018-09-15T10:57:10.703Z,30.53
2018-09-15T10:58:09.801Z,29.90
2018-09-15T10:59:09.951Z,29.60
2018-09-15T11:00:10.323Z,29.53
2018-09-15T11:01:10.376Z,29.73
2018-09-15T11:02:10.881Z,30.28
2018-09-15T11:03:10.761Z,30.09
2018-09-15T11:04:10.997Z,29.12
2018-09-15T11:05:11.083Z,28.12
2018-09-15T11:06:11.286Z,27.21
2018-09-15T11:07:11.437Z,26.80
2018-09-15T11:08:11.707Z,26.25
2018-09-15T11:09:11.927Z,26.09
2018-09-15T11:10:12.105Z,26.90
2018-09-15T11:11:12.257Z,27.98
2018-09-15T11:12:12.402Z,28.76
2018-09-15T11:13:12.594Z,29.27
2018-09-15T11:14:12.686Z,29.66
2018-09-15T11:15:13.103Z,30.19
2018-09-15T11:16:13.107Z,29.42
2018-09-15T11:17:13.306Z,28.96
2018-09-15T11:18:13.434Z,29.35
2018-09-15T11:19:13.657Z,29.81
2018-09-15T11:20:13.929Z,30.15
2018-09-15T11:21:14.191Z,30.77
2018-09-15T11:22:14.378Z,31.25
2018-09-15T11:23:14.917Z,31.66
2018-09-15T11:24:14.689Z,32.12
2018-09-15T11:25:14.868Z,32.41
2018-09-15T11:26:15.131Z,31.64
2018-09-15T11:27:15.129Z,31.44
2018-09-15T11:28:15.644Z,30.25
2018-09-15T11:29:15.881Z,30.23
2018-09-15T11:30:16.197Z,29.51
2018-09-15T11:31:16.052Z,29.04
2018-09-15T11:32:16.193Z,29.16
2018-09-15T11:33:17.044Z,29.79
2018-09-15T11:34:16.487Z,29.98
2018-09-15T11:35:16.596Z,29.14
2018-09-15T11:36:18.032Z,28.93
2018-09-15T11:37:17.304Z,29.38
2018-09-15T11:38:17.240Z,29.75
2018-09-15T11:39:17.329Z,30.24
2018-09-15T11:40:17.507Z,31.05
2018-09-15T11:41:17.802Z,31.49
2018-09-15T11:42:17.903Z,31.47
2018-09-15T11:43:18.140Z,31.54
2018-09-15T11:44:18.533Z,31.34
2018-09-15T11:45:18.837Z,31.29
2018-09-15T11:46:18.711Z,31.18
2018-09-15T11:47:18.921Z,30.96
2018-09-15T11:48:19.154Z,30.73
2018-09-15T11:49:19.221Z,29.94
2018-09-15T11:50:19.343Z,29.36
2018-09-15T11:51:19.592Z,28.66
2018-09-15T11:52:19.732Z,28.14
2018-09-15T11:53:19.968Z,27.59
2018-09-15T11:54:20.018Z,27.36
2018-09-15T11:55:20.239Z,26.78
2018-09-15T11:56:20.399Z,26.23
2018-09-15T11:57:20.562Z,25.99
2018-09-15T11:58:30.558Z,25.40
2018-09-15T12:00:54.896Z,24.89
2018-09-15T12:01:56.834Z,25.01
2018-09-15T12:02:56.313Z,25.46
2018-09-15T12:03:54.580Z,25.38
2018-09-15T12:04:54.727Z,25.18
2018-09-15T12:05:56.632Z,25.08
2018-09-15T12:06:55.124Z,25.06
2018-09-15T12:07:55.340Z,25.14
2018-09-15T12:08:55.524Z,25.17
2018-09-15T12:09:55.668Z,25.26
2018-09-15T12:10:55.687Z,25.53
2018-09-15T12:11:55.931Z,25.72
2018-09-15T12:12:56.361Z,26.15
2018-09-15T12:13:56.375Z,26.26
2018-09-15T12:14:56.460Z,26.75
2018-09-15T12:15:56.631Z,27.48
2018-09-15T12:16:56.943Z,27.67
2018-09-15T12:17:57.005Z,28.10
2018-09-15T12:18:57.447Z,27.82
2018-09-15T12:19:57.397Z,27.82
2018-09-15T12:20:57.476Z,27.59
2018-09-15T12:21:58.081Z,26.95
2018-09-15T12:22:57.900Z,26.73
2018-09-15T12:23:58.066Z,26.55
2018-09-15T12:24:58.882Z,26.65
2018-09-15T12:25:59.442Z,26.58
2018-09-15T12:27:00.457Z,26.83
2018-09-15T12:27:59.013Z,26.74
2018-09-15T12:28:58.903Z,26.70
2018-09-15T12:29:59.275Z,26.56
2018-09-15T12:30:59.496Z,26.47
2018-09-15T12:31:59.864Z,26.40
2018-09-15T12:32:59.751Z,26.31
2018-09-15T12:33:59.788Z,26.13
2018-09-15T12:35:00.188Z,25.95
2018-09-15T12:36:00.102Z,25.54
2018-09-15T12:37:00.507Z,25.07
2018-09-15T12:38:00.544Z,25.26
2018-09-15T12:41:55.253Z,25.29
2018-09-15T12:42:42.740Z,25.28
2018-09-15T12:43:37.932Z,25.22
2018-09-15T12:44:37.118Z,25.04
2018-09-15T12:45:37.325Z,24.86
2018-09-15T12:46:38.227Z,24.98
2018-09-15T12:47:37.894Z,24.69
2018-09-15T12:48:38.105Z,24.43
2018-09-15T12:49:38.088Z,25.04
2018-09-15T12:50:38.222Z,25.63
2018-09-15T12:51:38.812Z,26.05
2018-09-15T12:55:33.561Z,25.51
2018-09-15T12:56:32.033Z,25.65
2018-09-15T12:57:32.378Z,25.78
2018-09-15T12:58:31.718Z,25.58
2018-09-15T12:59:29.733Z,25.38
2018-09-15T13:00:29.764Z,25.11
2018-09-15T13:01:30.531Z,24.76
2018-09-15T13:02:29.987Z,24.70
2018-09-15T13:03:30.131Z,24.70
2018-09-15T13:04:30.270Z,24.58
2018-09-15T13:05:30.680Z,24.38
2018-09-15T13:06:30.898Z,24.20
2018-09-15T13:07:31.424Z,24.06
2018-09-15T13:08:30.988Z,23.95
2018-09-15T13:09:31.148Z,23.87
2018-09-15T13:10:31.434Z,23.54
2018-09-15T13:13:16.184Z,23.12
2018-09-15T13:14:16.503Z,23.03
2018-09-15T13:15:16.612Z,22.96
2018-09-15T13:16:16.907Z,22.98
2018-09-15T13:17:19.028Z,23.08
2018-09-15T13:18:17.515Z,23.18
2018-09-15T13:19:17.244Z,23.27
2018-09-15T13:20:21.832Z,23.36
2018-09-15T13:21:17.670Z,23.28
2018-09-15T13:22:17.541Z,23.41
2018-09-15T13:23:25.004Z,23.37
2018-09-15T13:24:17.369Z,23.41
2018-09-15T13:25:16.189Z,23.40
2018-09-15T13:26:16.296Z,23.50
2018-09-15T13:27:17.878Z,23.47
2018-09-15T13:28:16.690Z,23.50
2018-09-15T13:31:00.821Z,23.80
2018-09-15T13:32:03.008Z,23.84
2018-09-15T13:34:01.678Z,23.83
2018-09-15T13:35:02.222Z,23.88
2018-09-15T13:36:01.431Z,24.02
2018-09-15T13:37:01.741Z,23.98
2018-09-15T13:37:59.913Z,24.11
2018-09-15T13:39:00.069Z,24.16
2018-09-15T13:40:00.138Z,23.99
2018-09-15T13:41:00.490Z,23.99
2018-09-15T13:42:00.686Z,23.92
2018-09-15T13:43:00.689Z,23.87
2018-09-15T13:44:00.897Z,23.96
2018-09-15T13:45:01.122Z,23.77
2018-09-15T13:46:01.278Z,23.84
2018-09-15T13:47:01.729Z,23.80
2018-09-15T13:48:01.527Z,23.69
2018-09-15T13:49:01.714Z,23.62
2018-09-15T13:50:01.963Z,23.44
2018-09-15T13:51:02.001Z,23.48
2018-09-15T13:52:02.193Z,23.37
2018-09-15T13:53:02.445Z,23.21
2018-09-15T13:54:02.659Z,23.18
2018-09-15T13:55:02.875Z,23.37
2018-09-15T13:56:03.003Z,23.61
2018-09-15T13:57:03.215Z,23.73
2018-09-15T13:58:03.302Z,23.83
2018-09-15T13:59:03.529Z,23.95
2018-09-15T14:00:03.639Z,24.03
2018-09-15T14:01:03.856Z,23.88
2018-09-15T14:02:04.002Z,24.32
2018-09-15T14:03:04.176Z,24.50
2018-09-15T14:04:04.319Z,24.68
2018-09-15T14:05:04.674Z,24.43
2018-09-15T14:06:04.727Z,24.40
2018-09-15T14:07:04.866Z,24.39
2018-09-15T14:08:05.133Z,24.84
2018-09-15T14:09:05.311Z,24.77
2018-09-15T14:10:07.043Z,24.60
2018-09-15T14:11:05.768Z,24.36
2018-09-15T14:12:05.824Z,24.32
2018-09-15T14:13:06.130Z,24.02
2018-09-15T14:14:06.167Z,23.76
2018-09-15T14:15:06.316Z,23.69
2018-09-15T14:16:06.599Z,23.69
2018-09-15T14:17:06.717Z,23.78
2018-09-15T14:18:06.872Z,23.80
2018-09-15T14:19:07.101Z,23.69
2018-09-15T14:20:07.275Z,23.63
2018-09-15T14:21:07.438Z,23.61
2018-09-15T14:22:07.662Z,23.62
2018-09-15T14:23:07.830Z,23.63
2018-09-15T14:24:07.903Z,23.77
2018-09-15T14:25:08.062Z,23.78
2018-09-15T14:26:08.271Z,23.83
2018-09-15T14:27:08.485Z,23.93
2018-09-15T14:28:08.634Z,23.88
2018-09-15T14:29:08.839Z,23.93
2018-09-15T14:30:09.007Z,23.77
2018-09-15T14:31:09.169Z,23.81
2018-09-15T14:32:09.279Z,23.80
2018-09-15T14:33:09.415Z,23.81
2018-09-15T14:34:09.554Z,23.80
2018-09-15T14:35:09.740Z,23.84
2018-09-15T14:36:10.009Z,24.28
2018-09-15T14:37:10.181Z,24.58
2018-09-15T14:38:10.314Z,25.13
2018-09-15T14:39:10.558Z,25.21
2018-09-15T14:40:10.736Z,25.31
2018-09-15T14:41:10.900Z,25.28
2018-09-15T14:42:11.093Z,24.86
2018-09-15T14:43:11.233Z,24.50
2018-09-15T14:44:11.416Z,24.42
2018-09-15T14:45:11.646Z,24.21
2018-09-15T14:46:11.819Z,24.08
2018-09-15T14:47:11.925Z,23.83
2018-09-15T14:48:12.169Z,23.59
2018-09-15T14:49:12.422Z,23.32
2018-09-15T14:50:12.474Z,23.05
2018-09-15T14:51:12.626Z,23.10
2018-09-15T14:52:12.882Z,23.23
2018-09-15T14:53:13.015Z,23.32
2018-09-15T14:54:13.141Z,23.41
2018-09-15T14:55:13.357Z,23.54
2018-09-15T14:56:13.614Z,23.56
2018-09-15T14:57:13.686Z,23.46
2018-09-15T14:58:13.940Z,23.47
2018-09-15T14:59:14.020Z,23.31
2018-09-15T15:00:14.238Z,23.41
2018-09-15T15:01:14.389Z,23.20
2018-09-15T15:02:14.601Z,23.27
2018-09-15T15:03:14.681Z,23.23
2018-09-15T15:04:14.881Z,22.99
2018-09-15T15:05:15.098Z,22.93
2018-09-15T15:06:15.238Z,22.84
2018-09-15T15:07:15.489Z,22.98
2018-09-15T15:08:15.638Z,23.02
2018-09-15T15:09:15.741Z,23.17
2018-09-15T15:10:15.971Z,23.20
2018-09-15T15:11:16.207Z,23.20
2018-09-15T15:12:16.362Z,23.21
2018-09-15T15:13:16.525Z,23.23
2018-09-15T15:14:16.680Z,23.23
2018-09-15T15:15:16.982Z,23.12
2018-09-15T15:16:17.044Z,23.12
2018-09-15T15:17:17.260Z,23.08
2018-09-15T15:18:17.483Z,23.02
2018-09-15T15:19:17.515Z,23.03
2018-09-15T15:20:17.725Z,22.90
2018-09-15T15:21:17.926Z,22.93
2018-09-15T15:22:18.104Z,22.75
2018-09-15T15:23:18.201Z,22.75
2018-09-15T15:24:18.357Z,22.76
2018-09-15T15:25:18.601Z,22.66
2018-09-15T15:26:18.848Z,22.75
2018-09-15T15:27:18.919Z,22.80
2018-09-15T15:28:19.075Z,22.72
2018-09-15T15:29:19.301Z,22.59
2018-09-15T15:30:19.475Z,22.63
2018-09-15T15:31:19.613Z,22.84
2018-09-15T15:32:19.786Z,22.83
2018-09-15T15:33:20.002Z,22.59
2018-09-15T15:34:20.066Z,22.65
2018-09-15T15:35:20.443Z,22.55
2018-09-15T15:36:20.401Z,22.63
2018-09-15T15:37:20.712Z,22.73
2018-09-15T15:38:20.799Z,22.70
2018-09-15T15:39:20.976Z,22.87
2018-09-15T15:40:21.140Z,22.73
2018-09-15T15:41:21.393Z,22.80
2018-09-15T15:42:21.553Z,22.94
2018-09-15T15:43:21.760Z,23.21
2018-09-15T15:44:21.947Z,23.41
2018-09-15T15:45:22.059Z,23.77
2018-09-15T15:46:22.176Z,23.77
2018-09-15T15:47:22.385Z,23.62
2018-09-15T15:48:22.559Z,23.65
2018-09-15T15:49:22.757Z,23.71
2018-09-15T15:50:22.892Z,23.99
2018-09-15T15:51:23.126Z,24.16
2018-09-15T15:52:23.259Z,24.29
2018-09-15T15:53:23.477Z,24.38
2018-09-15T15:54:23.609Z,24.16
2018-09-15T15:55:23.762Z,24.16
2018-09-15T15:56:23.981Z,24.06
2018-09-15T15:57:24.189Z,23.84
2018-09-15T15:58:24.449Z,23.74
2018-09-15T15:59:24.602Z,23.59
2018-09-15T16:01:26.671Z,23.12
2018-09-15T16:02:29.719Z,23.00
2018-09-15T16:03:25.288Z,22.94
2018-09-15T16:04:25.575Z,22.83
2018-09-15T16:05:25.597Z,22.78
2018-09-15T16:06:25.708Z,22.76
2018-09-15T16:07:25.960Z,22.60
2018-09-15T16:08:26.132Z,22.51
2018-09-15T16:09:26.365Z,22.48
2018-09-15T16:10:26.470Z,22.41
2018-09-15T16:11:26.876Z,22.47
2018-09-15T16:12:26.917Z,22.33
2018-09-15T16:13:27.096Z,22.25
2018-09-15T16:14:27.262Z,22.22
2018-09-15T16:15:27.587Z,22.20
2018-09-15T16:16:27.763Z,22.23
2018-09-15T16:17:27.898Z,22.13
2018-09-15T16:18:28.705Z,22.18
2018-09-15T16:19:30.291Z,22.14
2018-09-15T16:20:29.364Z,22.13
2018-09-15T16:21:28.853Z,22.06
2018-09-15T16:22:28.892Z,22.08
2018-09-15T16:23:29.355Z,22.00
2018-09-15T16:24:29.838Z,21.99
2018-09-15T16:25:29.466Z,21.99
2018-09-15T16:26:30.206Z,21.93
2018-09-15T16:27:29.845Z,21.82
2018-09-15T16:28:30.125Z,21.85
2018-09-15T16:29:30.373Z,21.72
2018-09-15T16:30:31.013Z,21.67
2018-09-15T16:31:31.569Z,21.70
2018-09-15T16:32:30.742Z,21.73
2018-09-15T16:33:32.087Z,21.76
2018-09-15T16:34:31.227Z,21.66
2018-09-15T16:35:31.457Z,21.55
2018-09-15T16:36:31.860Z,21.50
2018-09-15T16:37:31.714Z,21.46
2018-09-15T16:38:32.189Z,21.37
2018-09-15T16:39:32.869Z,21.24
2018-09-15T16:40:32.422Z,21.22
2018-09-15T16:41:34.196Z,21.11
2018-09-15T16:45:11.699Z,21.12
2018-09-15T16:47:11.811Z,21.14
2018-09-15T16:51:50.247Z,21.21
2018-09-15T16:52:48.337Z,21.21
2018-09-15T16:53:52.565Z,21.17
2018-09-15T16:54:53.976Z,21.15
2018-09-15T16:59:56.765Z,21.09
2018-09-15T17:03:39.174Z,21.07
2018-09-15T17:04:46.867Z,20.97
2018-09-15T17:05:39.817Z,20.96
2018-09-15T17:06:58.343Z,20.95
2018-09-15T17:08:03.803Z,20.95
2018-09-15T17:09:46.306Z,20.84
2018-09-15T17:10:45.740Z,20.77
2018-09-15T17:11:46.209Z,20.69
2018-09-15T17:12:41.643Z,20.58
2018-09-15T17:13:49.667Z,20.67
2018-09-15T17:14:41.063Z,20.52
2018-09-15T17:16:42.801Z,20.37
2018-09-15T17:17:42.966Z,20.40
2018-09-15T17:18:42.022Z,20.39
2018-09-15T17:20:40.157Z,20.39
2018-09-15T17:21:39.618Z,20.37
2018-09-15T17:22:39.716Z,20.25
2018-09-15T17:23:40.235Z,20.28
2018-09-15T17:24:40.037Z,20.28
2018-09-15T17:25:40.211Z,20.28
2018-09-15T17:26:40.337Z,20.28
2018-09-15T17:27:40.429Z,20.25
2018-09-15T17:28:40.535Z,20.13
2018-09-15T17:29:40.805Z,20.14
2018-09-15T17:30:41.055Z,20.21
2018-09-15T17:31:41.840Z,20.04
2018-09-15T17:32:41.334Z,20.02
2018-09-15T17:33:41.465Z,19.99
2018-09-15T17:34:41.669Z,19.92
2018-09-15T17:35:42.004Z,19.88
2018-09-15T17:36:42.140Z,19.84
2018-09-15T17:37:42.217Z,19.88
2018-09-15T17:38:42.424Z,19.88
2018-09-15T17:39:43.445Z,19.86
2018-09-15T17:40:43.265Z,19.81
2018-09-15T17:41:43.933Z,19.82
2018-09-15T17:42:43.686Z,19.76
2018-09-15T17:43:43.953Z,19.71
2018-09-15T17:44:43.894Z,19.77
2018-09-15T17:45:44.105Z,19.66
2018-09-15T17:46:44.280Z,19.58
2018-09-15T17:47:44.347Z,19.58
2018-09-15T17:48:44.546Z,19.51
2018-09-15T17:49:44.922Z,19.49
2018-09-15T17:50:44.762Z,19.45
2018-09-15T17:51:45.080Z,19.39
2018-09-15T17:52:45.280Z,19.36
2018-09-15T17:53:45.578Z,19.40
2018-09-15T17:54:45.759Z,19.26
2018-09-15T17:55:45.814Z,19.31
2018-09-15T17:56:47.810Z,19.19
2018-09-15T17:57:46.379Z,19.21
2018-09-15T17:58:46.944Z,19.12
2018-09-15T18:13:32.226Z,18.43
2018-09-15T18:14:32.672Z,18.41
2018-09-15T18:15:33.219Z,18.33
2018-09-15T18:16:32.979Z,18.28
2018-09-15T18:17:32.965Z,18.33
2018-09-15T18:18:34.781Z,18.26
2018-09-15T18:19:33.652Z,18.20
2018-09-15T18:22:15.121Z,18.10
2018-09-15T18:23:15.706Z,17.94
2018-09-15T18:26:17.470Z,18.00
2018-09-15T18:27:18.244Z,17.80
2018-09-15T18:28:18.697Z,17.72
2018-09-15T18:29:18.259Z,17.68
2018-09-15T18:30:18.852Z,17.63
2018-09-15T18:31:18.834Z,17.60
2018-09-15T18:32:18.650Z,17.41
2018-09-15T18:33:18.806Z,17.48
2018-09-15T18:34:23.132Z,17.45
2018-09-15T18:35:26.833Z,17.42
2018-09-15T18:36:20.052Z,17.38
2018-09-15T18:37:20.488Z,17.27
2018-09-15T18:38:20.294Z,17.31
2018-09-15T18:39:19.684Z,17.20
2018-09-15T18:40:18.638Z,17.27
2018-09-15T18:41:17.753Z,17.15
2018-09-15T18:42:17.782Z,17.06
2018-09-15T18:43:17.860Z,17.04
2018-09-15T18:44:18.040Z,16.96
2018-09-15T18:45:18.247Z,16.94
2018-09-15T18:46:18.485Z,16.87
2018-09-15T18:47:18.695Z,16.81
2018-09-15T18:48:18.777Z,16.76
2018-09-15T18:49:18.957Z,16.64
2018-09-15T18:50:19.183Z,16.61
2018-09-15T18:51:19.341Z,16.49
2018-09-15T18:52:19.634Z,16.53
2018-09-15T18:53:19.700Z,16.42
2018-09-15T18:54:19.860Z,16.46
2018-09-15T18:55:20.370Z,16.42
2018-09-15T18:56:20.232Z,16.33
2018-09-15T18:57:20.404Z,16.35
2018-09-15T18:58:20.654Z,16.35
2018-09-15T18:59:20.775Z,16.28
2018-09-15T19:00:21.062Z,16.31
2018-09-15T19:01:21.342Z,16.24
2018-09-15T19:02:21.378Z,16.23
2018-09-15T19:03:21.489Z,16.15
2018-09-15T19:04:21.808Z,16.12
2018-09-15T19:05:21.853Z,16.10
2018-09-15T19:06:22.005Z,16.09
2018-09-15T19:07:22.529Z,16.02
2018-09-15T19:08:22.381Z,15.98
2018-09-15T19:09:22.806Z,15.94
2018-09-15T19:10:22.730Z,15.98
2018-09-15T19:11:23.385Z,15.94
2018-09-15T19:12:23.448Z,15.79
2018-09-15T19:13:23.536Z,15.73
2018-09-15T19:14:23.555Z,15.77
2018-09-15T19:15:23.533Z,15.67
2018-09-15T19:16:23.962Z,15.64
2018-09-15T19:17:24.097Z,15.58
2018-09-15T19:18:24.285Z,15.51
2018-09-15T19:19:24.749Z,15.58
2018-09-15T19:20:24.703Z,15.52
2018-09-15T19:21:25.596Z,15.44
2018-09-15T19:22:25.348Z,15.47
2018-09-15T19:23:25.339Z,15.55
2018-09-15T19:24:25.770Z,15.49
2018-09-15T19:25:25.913Z,15.51
2018-09-15T19:26:26.795Z,15.47
2018-09-15T19:27:28.067Z,15.39
2018-09-15T19:28:27.018Z,15.39
2018-09-15T19:29:26.983Z,15.35
2018-09-15T19:30:26.916Z,15.33
2018-09-15T19:31:28.110Z,15.28
2018-09-15T19:32:27.554Z,15.22
2018-09-15T19:33:27.702Z,15.25
2018-09-15T19:34:27.902Z,15.18
2018-09-15T19:35:28.209Z,15.19
2018-09-15T19:36:28.258Z,15.15
2018-09-15T19:37:28.636Z,15.22
2018-09-15T19:38:29.989Z,15.14
2018-09-15T19:39:29.541Z,15.18
2018-09-15T19:40:29.382Z,15.14
2018-09-15T19:41:30.365Z,15.14
2018-09-15T19:42:29.574Z,15.14
2018-09-15T19:43:31.531Z,15.11
2018-09-15T19:44:29.420Z,15.10
2018-09-15T19:45:29.855Z,15.10
2018-09-15T19:46:29.766Z,15.04
2018-09-15T19:47:29.854Z,15.00
2018-09-15T19:48:29.939Z,14.96
2018-09-15T19:49:30.579Z,15.00
2018-09-15T19:50:30.193Z,14.89
2018-09-15T19:51:30.679Z,14.85
2018-09-15T19:52:31.800Z,14.85
2018-09-15T19:53:31.544Z,14.85
2018-09-15T19:55:31.883Z,14.77
2018-09-15T19:56:31.383Z,14.79
2018-09-15T19:57:32.552Z,14.77
2018-09-15T19:58:31.679Z,14.72
2018-09-15T19:59:33.684Z,14.68
2018-09-15T20:00:32.175Z,14.59
2018-09-15T20:01:32.266Z,14.58
2018-09-15T20:02:33.094Z,14.62
2018-09-15T20:03:37.826Z,14.55
2018-09-15T20:04:36.033Z,14.54
2018-09-15T20:05:32.799Z,14.59